Townsville Airport
YBTL : now visible

Airfield :











YOU CAN JOIN US ON...

 
LOGIN :

Register | Disclaimer

   EN    FR    IT 

 









Legend :    VFR   Marginal VFR   IFR   Intensive IFR   Very Intensive IFR
Visi :
Ceiling :
>= 8 km
>= 3000ft
5 to 8 km
1000 to 3000 ft
1500m to 5 km
500 to 1000 ft
800 to 1500m
200 to 500 ft
< 800m
< 200 ft
Symbols :   Thunderstorms  Fog  Heavy snow  Heavy precipitations  Wind > 20 kt






- Airport Elevation : 18 ft
- IATA code : TSV


YBTL - Townsville

CURRENT METAR :
  • 181300Z AUTO 16006KT 9999 // SCT019 BKN026 25/24 Q1010

EXPIRED METARs :
  • 181230Z AUTO 15007KT 9999 // BKN045 25/24 Q1010
  • 181208Z AUTO 17008KT 9999 // SCT017 SCT031 BKN043 24/24 Q1010
  • 181200Z AUTO 16008KT 9999 // SCT015 BKN031 BKN039 24/24 Q1010
  • 181142Z AUTO 15009KT 9999 // BKN013 OVC018 OVC026 24/24 Q1010
  • 181130Z AUTO 14009KT 3700 -SHRA OVC013 OVC018 24/24 Q1010
  • 181121Z AUTO 15009KT 6000 // BKN013 OVC020 OVC025 25/24 Q1010
  • 181111Z AUTO 16008KT 9999 // BKN017 OVC022 OVC030 25/24 Q1010
  • 181030Z AUTO 14011KT 9999 // SCT019 BKN026 OVC032 25/23 Q1009

TAF AMD TAF YBTL
Valid from the 18 at 12:00 until the 19 at 12:00 UTC


181107Z 1812/1912 10014KT 9999 -SHRA SCT012 BKN022
FM181500 11014KT 8000 -SHRA FEW005 BKN012 OVC025
FM190200 09020G35KT 6000 -RA SCT005 BKN010
TEMPO 1812/1912 09020G30KT 2000 SHRA SCT005 BKN010
PROB30
TEMPO 1812/1818 VRB25G40KT 1000 TSRA BKN005 SCT020CB
PROB30
TEMPO 1818/1912 VRB35G55KT 0500 TSRA BKN005 SCT020CB
YBBB FIR / Oceania



MET'MAP, your aeronautical weather chart ! - Copyright ORBIFLY December 2007 - Disclaimer

ORBIFLY MET'MAP TEAM :

Programming & Development : Alexandra Zaïnal
Concept & original design : Baudouin d'Aumeries
Assistance for programming : Marc-Olivier Méhu
Technical & hardware support : Manuel Goepfert

Contact : metmap@orbifly.com




SOURCES & CREDITS :

   NOAA       Earth
Advisory